createdAt,value
2022-07-30T00:00:05.770Z,2.60
2022-07-30T00:01:06.736Z,2.20
2022-07-30T00:02:05.739Z,2.50
2022-07-30T00:03:05.765Z,2.50
2022-07-30T00:04:05.796Z,2.50
2022-07-30T00:05:05.705Z,2.30
2022-07-30T00:06:05.674Z,2.50
2022-07-30T00:07:05.712Z,2.70
2022-07-30T00:08:05.664Z,2.80
2022-07-30T00:09:05.654Z,2.60
2022-07-30T00:10:05.675Z,3.10
2022-07-30T00:11:05.654Z,2.40
2022-07-30T00:12:05.623Z,2.50
2022-07-30T00:13:05.587Z,2.60
2022-07-30T00:14:05.597Z,2.50
2022-07-30T00:15:05.626Z,2.60
2022-07-30T00:16:05.567Z,2.50
2022-07-30T00:17:05.755Z,2.50
2022-07-30T00:18:05.527Z,2.40
2022-07-30T00:19:05.525Z,2.60
2022-07-30T00:20:05.533Z,2.10
2022-07-30T00:21:05.528Z,2.60
2022-07-30T00:22:05.506Z,2.30
2022-07-30T00:23:05.523Z,2.40
2022-07-30T00:24:05.447Z,2.40
2022-07-30T00:25:05.598Z,2.40
2022-07-30T00:26:05.429Z,2.40
2022-07-30T00:27:05.440Z,2.50
2022-07-30T00:28:05.426Z,2.60
2022-07-30T00:29:05.389Z,2.60
2022-07-30T00:30:05.440Z,2.50
2022-07-30T00:31:05.495Z,2.40
2022-07-30T00:32:05.356Z,2.50
2022-07-30T00:33:05.337Z,2.40
2022-07-30T00:34:05.340Z,2.40
2022-07-30T00:35:05.311Z,2.60
2022-07-30T00:36:05.322Z,2.50
2022-07-30T00:37:05.299Z,2.70
2022-07-30T00:38:05.297Z,2.40
2022-07-30T00:39:05.772Z,2.50
2022-07-30T00:40:05.262Z,2.50
2022-07-30T00:41:05.274Z,2.60
2022-07-30T00:42:05.246Z,2.70
2022-07-30T00:43:05.250Z,2.70
2022-07-30T00:44:05.204Z,2.90
2022-07-30T00:45:05.194Z,2.70
2022-07-30T00:46:05.252Z,2.70
2022-07-30T00:47:05.228Z,2.80
2022-07-30T00:48:05.216Z,2.80
2022-07-30T00:49:05.194Z,2.50
2022-07-30T00:50:05.164Z,2.80
2022-07-30T00:51:05.137Z,2.40
2022-07-30T00:52:05.114Z,2.70
2022-07-30T00:53:05.086Z,2.80
2022-07-30T00:54:05.103Z,3.00
2022-07-30T00:55:05.051Z,2.90
2022-07-30T00:56:05.051Z,2.70
2022-07-30T00:57:05.013Z,2.70
2022-07-30T00:58:05.024Z,2.70
2022-07-30T00:59:04.977Z,2.80
2022-07-30T01:00:05.024Z,3.10
2022-07-30T01:01:04.992Z,2.70
2022-07-30T01:02:05.000Z,2.70
2022-07-30T01:03:04.956Z,2.60
2022-07-30T01:04:04.924Z,2.60
2022-07-30T01:05:04.961Z,2.90
2022-07-30T01:06:04.904Z,2.80
2022-07-30T01:07:04.908Z,3.10
2022-07-30T01:08:04.905Z,2.80
2022-07-30T01:09:04.959Z,3.40
2022-07-30T01:10:04.865Z,2.80
2022-07-30T01:11:04.831Z,2.90
2022-07-30T01:12:04.856Z,2.70
2022-07-30T01:13:04.845Z,3.10
2022-07-30T01:14:04.809Z,3.10
2022-07-30T01:15:04.779Z,3.00
2022-07-30T01:16:04.864Z,3.00
2022-07-30T01:17:04.773Z,3.00
2022-07-30T01:18:04.785Z,2.60
2022-07-30T01:19:04.771Z,3.00
2022-07-30T01:20:04.710Z,2.80
2022-07-30T01:21:04.745Z,3.10
2022-07-30T01:22:04.686Z,3.20
2022-07-30T01:23:04.723Z,3.30
2022-07-30T01:24:04.687Z,3.00
2022-07-30T01:25:04.655Z,3.20
2022-07-30T01:26:04.723Z,3.30
2022-07-30T01:27:04.635Z,3.20
2022-07-30T01:28:04.657Z,3.10
2022-07-30T01:29:04.661Z,2.80
2022-07-30T01:30:04.591Z,2.80
2022-07-30T01:31:04.623Z,3.60
2022-07-30T01:32:04.621Z,3.00
2022-07-30T01:33:04.565Z,2.90
2022-07-30T01:34:04.592Z,2.90
2022-07-30T01:35:04.533Z,2.90
2022-07-30T01:36:04.523Z,2.90
2022-07-30T01:37:04.700Z,2.80
2022-07-30T01:38:04.542Z,2.90
2022-07-30T01:39:04.504Z,2.70
2022-07-30T01:40:04.483Z,2.90
2022-07-30T01:41:04.465Z,3.00
2022-07-30T01:42:05.311Z,3.00
2022-07-30T01:43:04.442Z,2.70
2022-07-30T01:44:04.446Z,3.10
2022-07-30T01:45:04.407Z,3.10
2022-07-30T01:46:04.468Z,2.60
2022-07-30T01:47:04.362Z,2.80
2022-07-30T01:48:04.354Z,2.90
2022-07-30T01:49:04.431Z,2.70
2022-07-30T01:50:04.360Z,3.00
2022-07-30T01:51:04.334Z,2.80
2022-07-30T01:52:04.319Z,3.00
2022-07-30T01:53:04.318Z,3.00
2022-07-30T01:54:04.289Z,2.90
2022-07-30T01:55:04.321Z,2.90
2022-07-30T01:56:04.249Z,3.30
2022-07-30T01:57:04.262Z,3.10
2022-07-30T01:58:04.236Z,2.80
2022-07-30T01:59:04.206Z,3.20
2022-07-30T02:00:04.254Z,3.60
2022-07-30T02:01:04.274Z,3.30
2022-07-30T02:02:04.197Z,3.40
2022-07-30T02:03:04.174Z,3.10
2022-07-30T02:04:04.227Z,3.60
2022-07-30T02:05:04.172Z,3.10
2022-07-30T02:06:04.130Z,3.50
2022-07-30T02:07:04.438Z,3.40
2022-07-30T02:08:04.085Z,3.70
2022-07-30T02:09:06.994Z,3.50
2022-07-30T02:10:04.121Z,3.30
2022-07-30T02:11:04.125Z,3.00
2022-07-30T02:12:04.048Z,3.30
2022-07-30T02:13:04.043Z,3.30
2022-07-30T02:14:04.011Z,4.00
2022-07-30T02:15:04.026Z,3.10
2022-07-30T02:16:04.099Z,3.60
2022-07-30T02:17:04.323Z,3.60
2022-07-30T02:18:03.960Z,3.30
2022-07-30T02:19:04.380Z,3.10
2022-07-30T02:20:09.225Z,3.50
2022-07-30T02:21:07.290Z,3.60
2022-07-30T02:22:03.930Z,3.30
2022-07-30T02:23:03.900Z,3.20
2022-07-30T02:24:03.908Z,3.50
2022-07-30T02:25:03.889Z,3.60
2022-07-30T02:26:03.891Z,3.20
2022-07-30T02:27:04.273Z,3.20
2022-07-30T02:28:03.835Z,3.60
2022-07-30T02:29:07.307Z,3.30
2022-07-30T02:30:03.792Z,3.30
2022-07-30T02:31:03.840Z,4.00
2022-07-30T02:32:03.781Z,3.70
2022-07-30T02:33:03.813Z,3.50
2022-07-30T02:34:03.757Z,3.70
2022-07-30T02:35:03.800Z,3.40
2022-07-30T02:36:03.729Z,3.60
2022-07-30T02:37:03.942Z,3.40
2022-07-30T02:38:03.732Z,3.20
2022-07-30T02:39:03.703Z,3.50
2022-07-30T02:40:03.683Z,3.40
2022-07-30T02:41:03.678Z,3.70
2022-07-30T02:42:03.655Z,3.60
2022-07-30T02:43:03.712Z,3.70
2022-07-30T02:44:03.636Z,3.50
2022-07-30T02:45:03.660Z,3.10
2022-07-30T02:46:03.612Z,3.50
2022-07-30T02:47:04.591Z,3.20
2022-07-30T02:48:03.591Z,3.30
2022-07-30T02:49:03.598Z,3.50
2022-07-30T02:50:03.656Z,3.30
2022-07-30T02:51:03.541Z,3.20
2022-07-30T02:52:03.527Z,3.20
2022-07-30T02:53:03.525Z,3.20
2022-07-30T02:54:03.519Z,3.30
2022-07-30T02:55:03.532Z,3.40
2022-07-30T02:56:03.485Z,3.50
2022-07-30T02:57:03.809Z,3.00
2022-07-30T02:58:03.423Z,3.30
2022-07-30T02:59:03.484Z,3.50
2022-07-30T03:00:03.451Z,3.60
2022-07-30T03:01:03.557Z,3.70
2022-07-30T03:02:03.484Z,3.50
2022-07-30T03:03:03.382Z,3.70
2022-07-30T03:04:03.361Z,3.80
2022-07-30T03:05:03.371Z,3.60
2022-07-30T03:06:03.361Z,3.40
2022-07-30T03:07:08.201Z,3.60
2022-07-30T03:08:03.346Z,3.80
2022-07-30T03:09:03.306Z,3.70
2022-07-30T03:10:03.297Z,3.70
2022-07-30T03:11:03.314Z,3.50
2022-07-30T03:12:03.271Z,3.50
2022-07-30T03:13:03.235Z,4.40
2022-07-30T03:14:03.243Z,4.00
2022-07-30T03:15:03.223Z,4.00
2022-07-30T03:16:03.290Z,3.80
2022-07-30T03:17:03.302Z,4.30
2022-07-30T03:18:03.164Z,3.40
2022-07-30T03:19:03.197Z,3.60
2022-07-30T03:20:03.216Z,3.50
2022-07-30T03:21:03.182Z,3.80
2022-07-30T03:22:03.151Z,3.70
2022-07-30T03:23:03.147Z,4.90
2022-07-30T03:24:03.132Z,5.00
2022-07-30T03:25:03.092Z,4.70
2022-07-30T03:26:03.124Z,4.90
2022-07-30T03:27:03.321Z,4.00
2022-07-30T03:28:03.055Z,3.80
2022-07-30T03:29:03.028Z,5.20
2022-07-30T03:30:03.017Z,5.10
2022-07-30T03:31:03.098Z,5.20
2022-07-30T03:32:03.032Z,5.50
2022-07-30T03:33:03.009Z,5.50
2022-07-30T03:34:02.965Z,5.00
2022-07-30T03:35:06.075Z,5.70
2022-07-30T03:36:02.939Z,5.10
2022-07-30T03:37:03.377Z,5.70
2022-07-30T03:38:03.265Z,5.20
2022-07-30T03:39:02.912Z,4.70
2022-07-30T03:40:02.904Z,5.20
2022-07-30T03:41:02.884Z,5.00
2022-07-30T03:42:03.227Z,5.20
2022-07-30T03:43:02.858Z,5.10
2022-07-30T03:44:02.851Z,5.00
2022-07-30T03:45:02.862Z,5.00
2022-07-30T03:46:02.977Z,5.30
2022-07-30T03:47:03.464Z,5.10
2022-07-30T03:48:02.806Z,5.30
2022-07-30T03:49:02.829Z,5.00
2022-07-30T03:50:02.759Z,5.40
2022-07-30T03:51:02.753Z,5.00
2022-07-30T03:52:02.741Z,4.70
2022-07-30T03:53:02.757Z,5.20
2022-07-30T03:54:02.698Z,5.10
2022-07-30T03:55:02.705Z,5.60
2022-07-30T03:56:02.690Z,5.50
2022-07-30T03:57:03.203Z,5.10
2022-07-30T03:58:02.688Z,5.20
2022-07-30T03:59:02.654Z,5.50
2022-07-30T04:00:02.641Z,5.10
2022-07-30T04:01:02.605Z,4.90
2022-07-30T04:02:05.978Z,5.40
2022-07-30T04:03:02.618Z,4.90
2022-07-30T04:04:02.660Z,5.30
2022-07-30T04:05:02.567Z,4.80
2022-07-30T04:06:02.535Z,4.80
2022-07-30T04:07:02.702Z,4.90
2022-07-30T04:08:02.527Z,5.10
2022-07-30T04:09:02.550Z,5.00
2022-07-30T04:10:02.481Z,5.20
2022-07-30T04:11:02.497Z,5.00
2022-07-30T04:12:02.471Z,5.50
2022-07-30T04:13:05.375Z,6.10
2022-07-30T04:14:02.489Z,5.50
2022-07-30T04:15:02.429Z,5.20
2022-07-30T04:16:38.994Z,5.00
2022-07-30T04:17:02.902Z,6.10
2022-07-30T04:18:02.382Z,5.30
2022-07-30T04:19:02.697Z,5.20
2022-07-30T04:20:02.371Z,4.90
2022-07-30T04:21:02.379Z,4.80
2022-07-30T04:22:02.368Z,5.70
2022-07-30T04:23:02.340Z,5.40
2022-07-30T04:24:05.158Z,5.10
2022-07-30T04:25:02.290Z,5.40
2022-07-30T04:26:02.289Z,5.70
2022-07-30T04:27:02.752Z,5.30
2022-07-30T04:28:03.765Z,5.10
2022-07-30T04:29:02.279Z,5.00
2022-07-30T04:30:02.275Z,5.30
2022-07-30T04:31:02.234Z,5.20
2022-07-30T04:32:02.219Z,4.90
2022-07-30T04:33:02.187Z,5.40
2022-07-30T04:34:03.001Z,5.30
2022-07-30T04:35:02.189Z,5.70
2022-07-30T04:36:02.142Z,5.30
2022-07-30T04:37:02.415Z,5.20
2022-07-30T04:38:02.121Z,4.90
2022-07-30T04:39:02.148Z,5.50
2022-07-30T04:40:02.115Z,5.30
2022-07-30T04:41:02.090Z,4.80
2022-07-30T04:42:02.092Z,5.80
2022-07-30T04:43:02.061Z,4.90
2022-07-30T04:44:02.078Z,4.90
2022-07-30T04:45:02.071Z,5.40
2022-07-30T04:46:02.087Z,4.80
2022-07-30T04:47:02.534Z,5.20
2022-07-30T04:48:01.975Z,4.80
2022-07-30T04:49:02.039Z,5.20
2022-07-30T04:50:02.000Z,4.50
2022-07-30T04:51:01.970Z,4.90
2022-07-30T04:52:01.998Z,5.30
2022-07-30T04:53:01.959Z,4.70
2022-07-30T04:54:01.919Z,5.20
2022-07-30T04:55:01.967Z,4.70
2022-07-30T04:56:01.888Z,5.00
2022-07-30T04:57:02.348Z,4.50
2022-07-30T04:58:02.121Z,4.80
2022-07-30T04:59:01.851Z,4.70
2022-07-30T05:00:01.864Z,4.80
2022-07-30T05:01:01.831Z,4.40
2022-07-30T05:02:01.860Z,5.00
2022-07-30T05:03:01.809Z,4.40
2022-07-30T05:04:01.793Z,4.40
2022-07-30T05:05:01.840Z,4.90
2022-07-30T05:06:01.818Z,4.60
2022-07-30T05:07:02.013Z,4.90
2022-07-30T05:08:01.754Z,4.80
2022-07-30T05:09:01.716Z,5.00
2022-07-30T05:10:01.723Z,4.40
2022-07-30T05:11:01.753Z,4.80
2022-07-30T05:12:01.690Z,4.60
2022-07-30T05:13:01.685Z,4.50
2022-07-30T05:14:01.674Z,4.60
2022-07-30T05:15:01.675Z,4.90
2022-07-30T05:16:01.668Z,4.50
2022-07-30T05:17:01.967Z,5.00
2022-07-30T05:18:01.588Z,4.70
2022-07-30T05:19:01.606Z,4.90
2022-07-30T05:20:01.578Z,4.70
2022-07-30T05:21:01.547Z,4.80
2022-07-30T05:22:06.371Z,4.20
2022-07-30T05:23:01.571Z,5.80
2022-07-30T05:24:01.515Z,4.60
2022-07-30T05:25:01.519Z,4.70
2022-07-30T05:26:01.525Z,4.40
2022-07-30T05:27:01.874Z,4.70
2022-07-30T05:28:01.472Z,5.00
2022-07-30T05:29:03.951Z,4.80
2022-07-30T05:30:01.495Z,4.60
2022-07-30T05:31:01.444Z,4.50
2022-07-30T05:32:02.652Z,4.40
2022-07-30T05:33:03.716Z,4.80
2022-07-30T05:34:03.567Z,4.90
2022-07-30T05:35:01.452Z,5.20
2022-07-30T05:36:01.409Z,4.60
2022-07-30T05:37:01.934Z,5.00
2022-07-30T05:38:01.367Z,4.30
2022-07-30T05:39:01.362Z,4.40
2022-07-30T05:40:03.261Z,4.30
2022-07-30T05:41:01.293Z,4.80
2022-07-30T05:42:01.306Z,4.80
2022-07-30T05:43:01.276Z,4.40
2022-07-30T05:44:01.262Z,4.50
2022-07-30T05:45:01.260Z,4.70
2022-07-30T05:46:01.349Z,4.30
2022-07-30T05:47:01.592Z,4.50
2022-07-30T05:48:01.223Z,4.50
2022-07-30T05:49:01.250Z,4.50
2022-07-30T05:50:04.715Z,4.20
2022-07-30T05:51:01.183Z,4.50
2022-07-30T05:52:01.259Z,4.50
2022-07-30T05:53:01.134Z,4.30
2022-07-30T05:54:01.131Z,5.10
2022-07-30T05:55:01.246Z,4.70
2022-07-30T05:56:01.110Z,4.50
2022-07-30T05:57:01.412Z,4.50
2022-07-30T05:58:01.067Z,4.20
2022-07-30T05:59:01.057Z,4.30
2022-07-30T06:00:01.126Z,4.80
2022-07-30T06:01:01.066Z,4.40
2022-07-30T06:02:01.062Z,4.00
2022-07-30T06:03:01.033Z,4.30
2022-07-30T06:04:01.096Z,4.20
2022-07-30T06:05:01.094Z,4.60
2022-07-30T06:06:00.974Z,4.60
2022-07-30T06:07:01.279Z,4.10
2022-07-30T06:08:00.956Z,4.70
2022-07-30T06:09:00.950Z,4.70
2022-07-30T06:10:00.904Z,3.90
2022-07-30T06:11:00.958Z,4.70
2022-07-30T06:12:00.938Z,4.20
2022-07-30T06:13:00.878Z,4.10
2022-07-30T06:14:00.896Z,4.00
2022-07-30T06:15:00.843Z,4.20
2022-07-30T06:16:00.951Z,4.20
2022-07-30T06:17:01.217Z,4.10
2022-07-30T06:18:01.703Z,3.80
2022-07-30T06:19:00.823Z,4.20
2022-07-30T06:20:00.789Z,4.00
2022-07-30T06:21:00.775Z,4.10
2022-07-30T06:22:05.931Z,4.40
2022-07-30T06:23:00.767Z,4.60
2022-07-30T06:24:01.232Z,3.80
2022-07-30T06:25:00.707Z,4.10
2022-07-30T06:26:00.723Z,3.70
2022-07-30T06:27:01.035Z,4.10
2022-07-30T06:28:10.681Z,4.00
2022-07-30T06:29:00.710Z,3.40
2022-07-30T06:30:00.663Z,3.80
2022-07-30T06:31:00.689Z,3.70
2022-07-30T06:32:00.639Z,3.90
2022-07-30T06:33:00.650Z,3.80
2022-07-30T06:34:00.634Z,3.40
2022-07-30T06:35:04.611Z,3.50
2022-07-30T06:36:00.607Z,3.90
2022-07-30T06:37:00.863Z,4.40
2022-07-30T06:38:07.315Z,3.70
2022-07-30T06:39:00.536Z,4.00
2022-07-30T06:40:00.556Z,3.90
2022-07-30T06:41:02.810Z,4.00
2022-07-30T06:42:00.517Z,4.20
2022-07-30T06:43:00.543Z,4.40
2022-07-30T06:44:00.471Z,3.90
2022-07-30T06:45:00.452Z,4.20
2022-07-30T06:46:00.577Z,4.00
2022-07-30T06:47:06.800Z,4.30
2022-07-30T06:48:00.499Z,3.70
2022-07-30T06:49:00.531Z,3.90
2022-07-30T06:50:00.412Z,3.80
2022-07-30T06:51:00.431Z,3.70
2022-07-30T06:52:00.387Z,3.30
2022-07-30T06:53:00.403Z,3.40
2022-07-30T06:54:00.370Z,3.50
2022-07-30T06:55:00.324Z,4.20
2022-07-30T06:56:00.740Z,3.50
2022-07-30T06:57:00.694Z,3.50
2022-07-30T06:58:00.338Z,3.10
2022-07-30T06:59:00.329Z,3.40
2022-07-30T07:00:01.056Z,3.30
2022-07-30T07:01:00.369Z,3.40
2022-07-30T07:02:00.247Z,3.60
2022-07-30T07:03:00.238Z,3.30
2022-07-30T07:04:00.326Z,3.30
2022-07-30T07:05:00.226Z,3.60
2022-07-30T07:06:00.192Z,3.40
2022-07-30T07:07:00.384Z,3.30
2022-07-30T07:08:00.166Z,3.50
2022-07-30T07:09:00.186Z,3.20
2022-07-30T07:10:00.163Z,3.60
2022-07-30T07:11:00.125Z,3.30
2022-07-30T07:12:00.117Z,3.80
2022-07-30T07:13:00.163Z,3.40
2022-07-30T07:14:04.157Z,3.60
2022-07-30T07:15:00.108Z,3.60
2022-07-30T07:16:00.068Z,4.10
2022-07-30T07:17:00.290Z,3.70
2022-07-30T07:18:02.228Z,3.50
2022-07-30T07:19:00.075Z,3.30
2022-07-30T07:20:02.587Z,3.80
2022-07-30T07:21:00.009Z,3.80
2022-07-30T07:22:00.069Z,3.80
2022-07-30T07:22:59.951Z,4.30
2022-07-30T07:24:00.013Z,3.70
2022-07-30T07:24:59.974Z,3.80
2022-07-30T07:25:59.949Z,3.80
2022-07-30T07:27:00.245Z,3.70
2022-07-30T07:28:12.595Z,3.70
2022-07-30T07:29:03.479Z,3.20
2022-07-30T07:30:01.304Z,4.20
2022-07-30T07:30:59.928Z,4.00
2022-07-30T07:32:05.366Z,4.10
2022-07-30T07:32:59.821Z,3.70
2022-07-30T07:33:59.885Z,3.60
2022-07-30T07:34:59.864Z,4.00
2022-07-30T07:35:59.821Z,3.20
2022-07-30T07:37:00.052Z,3.80
2022-07-30T07:37:59.767Z,3.30
2022-07-30T07:38:59.758Z,3.70
2022-07-30T07:39:59.757Z,3.80
2022-07-30T07:40:59.761Z,3.50
2022-07-30T07:41:59.748Z,3.90
2022-07-30T07:42:59.718Z,3.90
2022-07-30T07:43:59.762Z,3.40
2022-07-30T07:44:59.693Z,3.50
2022-07-30T07:45:59.733Z,3.70
2022-07-30T07:47:00.115Z,3.60
2022-07-30T07:47:59.635Z,3.50
2022-07-30T07:48:59.766Z,3.80
2022-07-30T07:49:59.632Z,3.70
2022-07-30T07:51:00.577Z,3.80
2022-07-30T07:51:59.598Z,3.80
2022-07-30T07:52:59.594Z,3.60
2022-07-30T07:54:19.838Z,3.40
2022-07-30T07:54:59.567Z,3.80
2022-07-30T07:55:59.566Z,3.30
2022-07-30T07:57:01.486Z,3.50
2022-07-30T07:57:59.515Z,3.80
2022-07-30T07:58:59.539Z,3.50
2022-07-30T07:59:59.514Z,3.90
2022-07-30T08:00:59.531Z,3.30
2022-07-30T08:01:59.503Z,3.60
2022-07-30T08:02:59.448Z,3.40
2022-07-30T08:03:59.521Z,3.40
2022-07-30T08:04:59.497Z,2.90
2022-07-30T08:06:05.599Z,3.40
2022-07-30T08:06:59.699Z,3.40
2022-07-30T08:07:59.793Z,3.80
2022-07-30T08:08:59.356Z,3.60
2022-07-30T08:09:59.358Z,3.20
2022-07-30T08:10:59.390Z,3.10
2022-07-30T08:11:59.355Z,3.40
2022-07-30T08:12:59.328Z,3.80
2022-07-30T08:13:59.336Z,3.40
2022-07-30T08:14:59.282Z,3.60
2022-07-30T08:15:59.309Z,3.30
2022-07-30T08:16:59.353Z,3.70
2022-07-30T08:17:59.261Z,3.20
2022-07-30T08:18:59.235Z,3.40
2022-07-30T08:19:59.239Z,3.40
2022-07-30T08:20:59.203Z,3.50
2022-07-30T08:21:59.253Z,3.20
2022-07-30T08:22:59.206Z,3.10
2022-07-30T08:23:59.174Z,3.20
2022-07-30T08:24:59.165Z,3.00
2022-07-30T08:25:59.192Z,3.50
2022-07-30T08:26:59.415Z,2.90
2022-07-30T08:27:59.155Z,2.80
2022-07-30T08:28:59.117Z,2.60
2022-07-30T08:29:59.088Z,3.10
2022-07-30T08:31:02.069Z,2.80
2022-07-30T08:31:59.457Z,3.00
2022-07-30T08:32:59.101Z,3.50
2022-07-30T08:33:59.050Z,3.20
2022-07-30T08:34:59.034Z,3.80
2022-07-30T08:36:02.868Z,3.10
2022-07-30T08:36:59.034Z,2.90
2022-07-30T08:37:59.037Z,2.70
2022-07-30T08:38:59.215Z,2.80
2022-07-30T08:39:59.035Z,2.80
2022-07-30T08:40:58.943Z,3.40
2022-07-30T08:41:58.977Z,2.90
2022-07-30T08:42:58.932Z,3.40
2022-07-30T08:43:58.934Z,2.90
2022-07-30T08:44:58.947Z,3.20
2022-07-30T08:45:58.883Z,2.60
2022-07-30T08:46:59.361Z,2.50
2022-07-30T08:47:58.881Z,3.20
2022-07-30T08:48:59.899Z,2.80
2022-07-30T08:49:58.891Z,3.10
2022-07-30T08:50:58.917Z,2.60
2022-07-30T08:51:59.058Z,2.60
2022-07-30T08:52:58.848Z,2.70
2022-07-30T08:53:58.847Z,2.40
2022-07-30T08:54:58.789Z,2.40
2022-07-30T08:55:58.907Z,2.30
2022-07-30T08:56:58.743Z,2.70
2022-07-30T08:57:58.765Z,2.70
2022-07-30T08:58:58.737Z,2.70
2022-07-30T09:00:00.535Z,2.40
2022-07-30T09:00:58.704Z,2.50
2022-07-30T09:01:59.084Z,2.50
2022-07-30T09:02:58.694Z,2.40
2022-07-30T09:03:58.744Z,2.80
2022-07-30T09:04:58.658Z,2.90
2022-07-30T09:05:58.738Z,2.20
2022-07-30T09:06:59.078Z,2.50
2022-07-30T09:07:58.635Z,2.60
2022-07-30T09:08:58.584Z,2.50
2022-07-30T09:09:58.575Z,2.80
2022-07-30T09:10:58.603Z,2.60
2022-07-30T09:11:58.568Z,2.50
2022-07-30T09:12:58.559Z,2.40
2022-07-30T09:13:58.541Z,2.60
2022-07-30T09:14:58.523Z,2.70
2022-07-30T09:15:58.571Z,2.40
2022-07-30T09:16:58.693Z,2.30
2022-07-30T09:17:58.523Z,2.60
2022-07-30T09:18:58.466Z,2.50
2022-07-30T09:19:58.489Z,2.40
2022-07-30T09:20:58.449Z,2.30
2022-07-30T09:21:58.457Z,2.60
2022-07-30T09:22:58.407Z,2.40
2022-07-30T09:23:58.434Z,2.80
2022-07-30T09:24:58.407Z,2.20
2022-07-30T09:25:58.402Z,2.20
2022-07-30T09:26:58.406Z,2.10
2022-07-30T09:27:58.367Z,2.30
2022-07-30T09:28:58.338Z,2.50
2022-07-30T09:29:58.368Z,2.60
2022-07-30T09:30:58.336Z,2.10
2022-07-30T09:31:58.307Z,2.10
2022-07-30T09:32:58.296Z,1.90
2022-07-30T09:33:58.283Z,2.10
2022-07-30T09:34:58.285Z,2.50
2022-07-30T09:35:58.252Z,2.30
2022-07-30T09:36:58.258Z,2.20
2022-07-30T09:38:00.766Z,1.90
2022-07-30T09:38:58.235Z,2.30
2022-07-30T09:39:59.134Z,2.00
2022-07-30T09:40:58.314Z,1.90
2022-07-30T09:41:58.179Z,2.20
2022-07-30T09:42:58.171Z,1.90
2022-07-30T09:43:58.152Z,2.10
2022-07-30T09:44:58.123Z,2.10
2022-07-30T09:45:58.203Z,2.10
2022-07-30T09:46:58.130Z,2.00
2022-07-30T09:47:58.799Z,2.10
2022-07-30T09:48:58.133Z,2.10
2022-07-30T09:49:59.956Z,2.40
2022-07-30T09:50:58.072Z,2.10
2022-07-30T09:51:58.070Z,1.80
2022-07-30T09:52:58.037Z,2.00
2022-07-30T09:53:58.032Z,2.40
2022-07-30T09:54:58.004Z,2.20
2022-07-30T09:55:58.025Z,1.90
2022-07-30T09:56:57.993Z,2.00
2022-07-30T09:57:58.768Z,2.20
2022-07-30T09:58:57.955Z,2.00
2022-07-30T09:59:58.108Z,1.90
2022-07-30T10:00:58.156Z,2.00
2022-07-30T10:02:00.572Z,2.30
2022-07-30T10:02:57.955Z,2.20
2022-07-30T10:03:57.905Z,2.20
2022-07-30T10:04:57.885Z,2.10
2022-07-30T10:05:57.908Z,2.10
2022-07-30T10:06:57.875Z,2.00
2022-07-30T10:07:57.885Z,1.90
2022-07-30T10:08:57.866Z,1.80
2022-07-30T10:09:57.820Z,1.80
2022-07-30T10:10:57.787Z,1.90
2022-07-30T10:11:57.843Z,1.80
2022-07-30T10:12:57.780Z,1.60
2022-07-30T10:13:57.901Z,2.30
2022-07-30T10:14:57.751Z,2.10
2022-07-30T10:15:57.724Z,1.80
2022-07-30T10:16:57.740Z,1.80
2022-07-30T10:17:57.733Z,2.10
2022-07-30T10:18:57.775Z,1.90
2022-07-30T10:19:57.681Z,2.00
2022-07-30T10:20:57.690Z,2.30
2022-07-30T10:21:57.673Z,2.00
2022-07-30T10:22:57.670Z,1.70
2022-07-30T10:23:57.657Z,1.90
2022-07-30T10:24:57.622Z,1.80
2022-07-30T10:25:57.643Z,2.00
2022-07-30T10:26:57.618Z,1.70
2022-07-30T10:27:58.175Z,1.80
2022-07-30T10:28:57.622Z,1.50
2022-07-30T10:29:57.564Z,1.60
2022-07-30T10:30:57.574Z,1.50
2022-07-30T10:31:57.560Z,1.70
2022-07-30T10:32:57.540Z,2.00
2022-07-30T10:33:57.512Z,1.60
2022-07-30T10:34:57.505Z,1.60
2022-07-30T10:35:57.531Z,2.00
2022-07-30T10:36:57.465Z,1.60
2022-07-30T10:37:57.453Z,1.90
2022-07-30T10:38:57.473Z,2.00
2022-07-30T10:39:57.441Z,1.90
2022-07-30T10:40:57.418Z,1.50
2022-07-30T10:41:57.446Z,1.70
2022-07-30T10:42:57.388Z,1.90
2022-07-30T10:43:57.409Z,1.90
2022-07-30T10:44:57.366Z,1.60
2022-07-30T10:45:57.348Z,1.40
2022-07-30T10:46:57.335Z,1.40
2022-07-30T10:47:57.340Z,1.60
2022-07-30T10:48:57.532Z,1.60
2022-07-30T10:49:57.317Z,1.40
2022-07-30T10:50:57.281Z,1.50
2022-07-30T10:51:57.492Z,1.80
2022-07-30T10:52:57.323Z,1.60
2022-07-30T10:53:57.253Z,1.70
2022-07-30T10:54:57.253Z,1.50
2022-07-30T10:55:57.217Z,1.60
2022-07-30T10:56:57.230Z,2.00
2022-07-30T10:57:57.255Z,1.60
2022-07-30T10:58:57.224Z,2.00
2022-07-30T10:59:57.192Z,1.40
2022-07-30T11:00:57.161Z,1.60
2022-07-30T11:01:57.140Z,1.70
2022-07-30T11:02:57.155Z,1.70
2022-07-30T11:03:57.160Z,1.40
2022-07-30T11:04:57.130Z,1.60
2022-07-30T11:05:57.091Z,1.60
2022-07-30T11:06:57.082Z,1.40
2022-07-30T11:07:57.146Z,1.50
2022-07-30T11:08:58.256Z,1.40
2022-07-30T11:10:05.212Z,1.50
2022-07-30T11:10:57.045Z,1.30
2022-07-30T11:12:01.431Z,1.50
2022-07-30T11:12:57.046Z,1.40
2022-07-30T11:13:57.008Z,1.40
2022-07-30T11:14:56.983Z,1.60
2022-07-30T11:15:57.054Z,1.80
2022-07-30T11:16:56.984Z,1.40
2022-07-30T11:17:56.949Z,1.50
2022-07-30T11:19:07.099Z,1.30
2022-07-30T11:20:01.590Z,1.40
2022-07-30T11:20:56.960Z,1.40
2022-07-30T11:21:56.915Z,1.40
2022-07-30T11:22:56.980Z,1.70
2022-07-30T11:23:56.930Z,1.50
2022-07-30T11:24:56.896Z,1.20
2022-07-30T11:25:56.872Z,1.70
2022-07-30T11:26:56.838Z,1.40
2022-07-30T11:27:56.867Z,1.20
2022-07-30T11:28:56.865Z,1.40
2022-07-30T11:29:56.837Z,1.90
2022-07-30T11:30:56.792Z,1.30
2022-07-30T11:32:07.722Z,1.20
2022-07-30T11:32:56.787Z,1.30
2022-07-30T11:33:56.764Z,1.70
2022-07-30T11:34:56.726Z,1.70
2022-07-30T11:35:56.733Z,1.30
2022-07-30T11:36:56.760Z,2.00
2022-07-30T11:37:56.692Z,1.20
2022-07-30T11:39:00.096Z,1.30
2022-07-30T11:39:56.745Z,1.20
2022-07-30T11:40:56.669Z,1.40
2022-07-30T11:41:56.682Z,1.40
2022-07-30T11:42:56.645Z,1.50
2022-07-30T11:43:56.635Z,1.40
2022-07-30T11:44:59.727Z,1.10
2022-07-30T11:45:56.636Z,1.70
2022-07-30T11:46:56.577Z,1.40
2022-07-30T11:47:56.594Z,1.10
2022-07-30T11:48:56.648Z,1.50
2022-07-30T11:49:56.556Z,1.10
2022-07-30T11:51:00.714Z,1.60
2022-07-30T11:51:56.512Z,1.20
2022-07-30T11:52:56.493Z,1.30
2022-07-30T11:53:56.482Z,1.00
2022-07-30T11:54:56.474Z,1.50
2022-07-30T11:55:56.538Z,1.20
2022-07-30T11:56:59.558Z,1.10
2022-07-30T11:57:56.450Z,1.10
2022-07-30T11:58:56.435Z,1.40
2022-07-30T11:59:56.416Z,1.40
2022-07-30T12:00:56.414Z,1.50
2022-07-30T12:01:56.395Z,1.40
2022-07-30T12:02:58.817Z,1.80
2022-07-30T12:03:56.413Z,1.30
2022-07-30T12:04:56.389Z,1.20
2022-07-30T12:05:56.345Z,1.10
2022-07-30T12:06:56.356Z,1.20
2022-07-30T12:07:56.316Z,1.30
2022-07-30T12:08:58.689Z,1.10
2022-07-30T12:09:56.320Z,1.20
2022-07-30T12:10:56.286Z,1.20
2022-07-30T12:11:56.306Z,1.00
2022-07-30T12:12:56.294Z,1.20
2022-07-30T12:13:56.227Z,1.20
2022-07-30T12:15:00.214Z,1.00
2022-07-30T12:15:56.231Z,1.30
2022-07-30T12:16:56.203Z,1.10
2022-07-30T12:18:05.628Z,1.20
2022-07-30T12:18:56.204Z,1.30
2022-07-30T12:19:56.204Z,1.30
2022-07-30T12:20:57.688Z,1.20
2022-07-30T12:21:56.130Z,1.30
2022-07-30T12:22:56.172Z,1.40
2022-07-30T12:23:56.112Z,1.00
2022-07-30T12:24:56.099Z,1.30
2022-07-30T12:25:56.075Z,1.20
2022-07-30T12:26:56.077Z,1.20
2022-07-30T12:27:56.069Z,1.10
2022-07-30T12:28:56.051Z,1.20
2022-07-30T12:29:56.083Z,1.30
2022-07-30T12:30:56.013Z,1.20
2022-07-30T12:31:56.005Z,1.30
2022-07-30T12:32:56.015Z,1.60
2022-07-30T12:33:55.980Z,1.20
2022-07-30T12:34:56.266Z,1.20
2022-07-30T12:35:55.985Z,1.20
2022-07-30T12:36:55.958Z,1.30
2022-07-30T12:37:56.017Z,1.10
2022-07-30T12:38:55.978Z,1.20
2022-07-30T12:39:55.927Z,1.00
2022-07-30T12:40:55.918Z,1.20
2022-07-30T12:41:55.982Z,1.20
2022-07-30T12:42:55.930Z,1.30
2022-07-30T12:43:55.859Z,1.30
2022-07-30T12:44:55.864Z,1.10
2022-07-30T12:45:55.876Z,1.00
2022-07-30T12:46:55.818Z,1.10
2022-07-30T12:47:55.807Z,1.10
2022-07-30T12:48:55.862Z,1.00
2022-07-30T12:49:55.888Z,1.00
2022-07-30T12:50:55.769Z,1.10
2022-07-30T12:52:00.274Z,1.20
2022-07-30T12:52:55.730Z,1.60
2022-07-30T12:53:55.735Z,1.00
2022-07-30T12:54:55.743Z,1.10
2022-07-30T12:55:55.709Z,1.20
2022-07-30T12:56:55.700Z,1.10
2022-07-30T12:57:55.682Z,1.20
2022-07-30T12:58:55.685Z,1.50
2022-07-30T12:59:55.670Z,1.20
2022-07-30T13:00:55.654Z,1.20
2022-07-30T13:01:55.698Z,1.20
2022-07-30T13:02:55.613Z,1.00
2022-07-30T13:03:55.613Z,1.00
2022-07-30T13:05:11.139Z,1.10
2022-07-30T13:05:55.979Z,1.00
2022-07-30T13:06:55.575Z,1.30
2022-07-30T13:07:55.562Z,1.20
2022-07-30T13:08:55.535Z,1.30
2022-07-30T13:09:55.528Z,1.40
2022-07-30T13:10:55.520Z,1.00
2022-07-30T13:11:55.582Z,1.00
2022-07-30T13:12:55.475Z,1.30
2022-07-30T13:13:55.480Z,1.00
2022-07-30T13:14:55.465Z,1.20
2022-07-30T13:15:55.456Z,1.40
2022-07-30T13:16:55.459Z,1.10
2022-07-30T13:17:55.435Z,1.30